Sherbro International Airport

Jump to: basic info | weather | comments

Related pages: nearby airports | nearby navaids | notams | map

Basic information (top)

Codes: BTE GFBN
Location: lon 7.532420, lat -12.518900, elev 14 ft / 4 m msl
Status: medium_airport
Scheduled airline service: yes
Links: Wikipedia Mobile

Weather (top)

Current conditions for Lungi International Airport 77nm (142km) NNW (rec'd 2014/10/25 12:00Z):

GFLL 251200Z 20004KT 9999 BKN013 FEW027CB 29/24 Q1012 RMK-CB NE/SE

Airport forecast for Lungi International Airport 77nm (142km) NNW (rec'd 2014/10/25 12:00Z):

TAF GFLL 251000Z 2512/2618 26O1OKT 9999 BKNO11 FEWO26CB 
      TEMPO 251/2521 2008KT 9000 TS BKN010 FEW026CB PROB30 
      TEMPO 2532/2601 12005KT 7000 TSRA BKN012 
      BECMG 3603/2606 18006KT 5000 BR 
      TEMPO 2605/2610 24004KT 9999 BKN011 FEW027CB

Latest comments (top)

No comments yet for Sherbro International Airport

More... (top)

See also NOTAMs and nearby airports and navaids, or visit the Sherbro International Airport page at the main OurAirports website..